Time;durP1;ratioP1;P1;durP2;ratioP2;P2;SDS_P1;SDS_P2;PMS_P1;PMS_P2;Temp;Humidity;BMP_temperature;BMP_pressure;BME280_temperature;BME280_humidity;BME280_pressure;Samples;Min_cycle;Max_cycle;Signal;HPM_P1;HPM_P2
2022/08/19 00:01:11;;;;;;;;;22.00;21.33;;;;;;;;5119466;27;46130;-70
2022/08/19 00:03:37;;;;;;;;;18.00;17.67;;;;;;;;5120048;27;45369;-70
2022/08/19 00:06:03;;;;;;;;;21.67;18.33;;;;;;;;5119036;27;45452;-71
2022/08/19 00:08:28;;;;;;;;;20.67;19.00;;;;;;;;5120333;27;45452;-71
2022/08/19 00:10:53;;;;;;;;;16.67;16.33;;;;;;;;5119982;27;46997;-69
2022/08/19 00:13:18;;;;;;;;;17.00;13.67;;;;;;;;5120290;27;45210;-71
2022/08/19 00:15:44;;;;;;;;;18.33;16.00;;;;;;;;5119192;27;45219;-72
2022/08/19 00:18:09;;;;;;;;;17.00;16.00;;;;;;;;5119193;27;45435;-70
2022/08/19 00:20:35;;;;;;;;;17.67;17.00;;;;;;;;5119965;27;46467;-69
2022/08/19 00:23:00;;;;;;;;;18.00;16.33;;;;;;;;5119959;27;45267;-69
2022/08/19 00:25:25;;;;;;;;;17.00;14.00;;;;;;;;5120111;27;45363;-69
2022/08/19 00:27:50;;;;;;;;;15.33;14.00;;;;;;;;5119615;27;45331;-70
2022/08/19 00:30:16;;;;;;;;;16.33;14.67;;;;;;;;5140015;27;45322;-70
2022/08/19 00:32:41;;;;;;;;;17.00;13.00;;;;;;;;5140492;27;45543;-70
2022/08/19 00:35:06;;;;;;;;;12.67;11.33;;;;;;;;5140523;27;45272;-70
2022/08/19 00:37:32;;;;;;;;;15.67;15.67;;;;;;;;5140878;27;45370;-69
2022/08/19 00:39:58;;;;;;;;;16.00;14.00;;;;;;;;5139125;27;47168;-70
2022/08/19 00:42:23;;;;;;;;;14.33;13.67;;;;;;;;5118422;27;45358;-69
2022/08/19 00:44:50;;;;;;;;;12.00;10.67;;;;;;;;5119828;27;45340;-70
2022/08/19 00:47:15;;;;;;;;;19.67;15.67;;;;;;;;5119588;27;45282;-69
2022/08/19 00:49:50;;;;;;;;;16.00;11.33;;;;;;;;5119401;27;45571;-70
2022/08/19 00:52:19;;;;;;;;;15.00;13.00;;;;;;;;5101345;27;45967;-70
2022/08/19 00:54:45;;;;;;;;;16.33;11.00;;;;;;;;5098703;27;45413;-70
2022/08/19 00:57:14;;;;;;;;;11.33;11.33;;;;;;;;5108341;27;45348;-69
2022/08/19 00:59:41;;;;;;;;;14.33;13.67;;;;;;;;5119252;27;45423;-70
2022/08/19 01:02:07;;;;;;;;;14.67;12.33;;;;;;;;5118741;27;45503;-70
2022/08/19 01:04:32;;;;;;;;;16.67;11.67;;;;;;;;5117403;27;45423;-70
2022/08/19 01:06:58;;;;;;;;;12.33;9.67;;;;;;;;5118729;27;45317;-70
2022/08/19 01:09:24;;;;;;;;;8.67;8.67;;;;;;;;5119023;27;46484;-70
2022/08/19 01:11:49;;;;;;;;;5.33;5.33;;;;;;;;5119063;27;45437;-70
2022/08/19 01:14:16;;;;;;;;;7.33;7.33;;;;;;;;5117666;27;45225;-70
2022/08/19 01:16:42;;;;;;;;;8.33;8.00;;;;;;;;5117658;27;45574;-70
2022/08/19 01:19:16;;;;;;;;;13.33;10.00;;;;;;;;5118668;27;46543;-69
2022/08/19 01:21:45;;;;;;;;;14.67;10.00;;;;;;;;5118876;27;45332;-70
2022/08/19 01:24:10;;;;;;;;;11.67;8.33;;;;;;;;5119114;27;45340;-70
2022/08/19 01:26:43;;;;;;;;;10.00;6.67;;;;;;;;5118020;27;45365;-70
2022/08/19 01:29:09;;;;;;;;;10.33;7.67;;;;;;;;5118977;27;45461;-70
2022/08/19 01:31:34;;;;;;;;;10.67;8.67;;;;;;;;5118497;27;45325;-69
2022/08/19 01:34:00;;;;;;;;;7.00;5.33;;;;;;;;5118529;27;45301;-70
2022/08/19 01:36:28;;;;;;;;;10.67;8.67;;;;;;;;5119075;27;45452;-70
2022/08/19 01:38:54;;;;;;;;;8.00;8.00;;;;;;;;5118496;27;46323;-69
2022/08/19 01:41:20;;;;;;;;;11.00;6.33;;;;;;;;5117643;27;45183;-70
2022/08/19 01:43:45;;;;;;;;;12.33;9.00;;;;;;;;5119001;27;45413;-70
2022/08/19 01:46:10;;;;;;;;;8.00;6.00;;;;;;;;5118810;27;45452;-70
2022/08/19 01:48:37;;;;;;;;;8.67;7.00;;;;;;;;5118481;27;46703;-70
2022/08/19 01:51:03;;;;;;;;;9.33;8.00;;;;;;;;5118677;27;45353;-70
2022/08/19 01:53:28;;;;;;;;;6.00;6.00;;;;;;;;5118487;27;45333;-70
2022/08/19 01:55:54;;;;;;;;;8.33;7.00;;;;;;;;5118804;27;45361;-70
2022/08/19 01:58:22;;;;;;;;;9.33;8.00;;;;;;;;5118424;27;46040;-70
2022/08/19 02:00:48;;;;;;;;;6.33;6.00;;;;;;;;5118475;27;45304;-70
2022/08/19 02:03:13;;;;;;;;;9.00;8.33;;;;;;;;5118615;27;45321;-70
2022/08/19 02:05:39;;;;;;;;;7.33;6.00;;;;;;;;5118439;27;45396;-69
2022/08/19 02:08:05;;;;;;;;;8.00;5.67;;;;;;;;5118014;27;45769;-69
2022/08/19 02:10:31;;;;;;;;;6.00;6.00;;;;;;;;5118523;27;45531;-69
2022/08/19 02:12:56;;;;;;;;;5.33;4.00;;;;;;;;5118126;27;45404;-70
2022/08/19 02:15:22;;;;;;;;;8.00;6.33;;;;;;;;5118581;27;45452;-70
2022/08/19 02:17:48;;;;;;;;;8.00;6.33;;;;;;;;5118175;27;45397;-70
2022/08/19 02:20:13;;;;;;;;;7.00;7.00;;;;;;;;5117992;27;45562;-70
2022/08/19 02:22:41;;;;;;;;;7.00;6.00;;;;;;;;5118454;27;45288;-70
2022/08/19 02:25:06;;;;;;;;;5.33;4.00;;;;;;;;5118385;27;45506;-70
2022/08/19 02:27:33;;;;;;;;;6.33;6.33;;;;;;;;5117930;27;47723;-70
2022/08/19 02:29:58;;;;;;;;;9.33;6.67;;;;;;;;5118013;27;45450;-70
2022/08/19 02:32:23;;;;;;;;;7.67;6.33;;;;;;;;5118070;27;45604;-70
2022/08/19 02:34:49;;;;;;;;;5.00;5.00;;;;;;;;5118289;27;45146;-70
2022/08/19 02:39:58;;;;;;;;;8.67;6.33;;;;;;;;5118098;27;45270;-70
2022/08/19 02:42:23;;;;;;;;;7.33;6.00;;;;;;;;5117808;27;45242;-70
2022/08/19 02:44:49;;;;;;;;;7.67;6.67;;;;;;;;5118258;27;45277;-70
2022/08/19 02:47:14;;;;;;;;;5.67;5.67;;;;;;;;5117884;27;45993;-70
2022/08/19 02:49:40;;;;;;;;;7.00;6.00;;;;;;;;5117733;27;45454;-70
2022/08/19 02:52:05;;;;;;;;;9.00;6.00;;;;;;;;5118013;27;45365;-70
2022/08/19 02:54:30;;;;;;;;;7.33;7.00;;;;;;;;5121239;27;45181;-70
2022/08/19 02:56:56;;;;;;;;;8.33;7.33;;;;;;;;5121245;27;45586;-70
2022/08/19 02:59:21;;;;;;;;;8.33;5.67;;;;;;;;5121458;27;45381;-69
2022/08/19 03:01:46;;;;;;;;;14.33;7.33;;;;;;;;5121211;27;45483;-70
2022/08/19 03:04:12;;;;;;;;;5.00;5.00;;;;;;;;5121534;27;45233;-70
2022/08/19 03:06:39;;;;;;;;;8.67;7.00;;;;;;;;5120958;27;46903;-70
2022/08/19 03:09:04;;;;;;;;;6.33;6.00;;;;;;;;5120843;27;45421;-70
2022/08/19 03:11:30;;;;;;;;;7.00;4.67;;;;;;;;5121200;27;45376;-70
2022/08/19 03:13:56;;;;;;;;;7.67;5.67;;;;;;;;5121257;27;45355;-70
2022/08/19 03:16:22;;;;;;;;;7.00;5.00;;;;;;;;5120647;27;46136;-70
2022/08/19 03:18:48;;;;;;;;;9.67;6.00;;;;;;;;5120435;27;45378;-70
2022/08/19 03:21:17;;;;;;;;;9.67;9.67;;;;;;;;5120824;27;45464;-70
2022/08/19 03:23:42;;;;;;;;;6.67;6.00;;;;;;;;5121405;27;45296;-69
2022/08/19 03:26:08;;;;;;;;;5.67;5.67;;;;;;;;5120385;27;46144;-70
2022/08/19 03:28:34;;;;;;;;;10.33;5.33;;;;;;;;5120893;27;45506;-69
2022/08/19 03:31:03;;;;;;;;;9.67;5.00;;;;;;;;5120909;27;45396;-70
2022/08/19 03:33:29;;;;;;;;;6.67;5.33;;;;;;;;5120643;27;45456;-70
2022/08/19 03:36:21;;;;;;;;;5.00;5.00;;;;;;;;5120375;27;46203;-69
2022/08/19 03:38:48;;;;;;;;;8.00;6.00;;;;;;;;5117908;27;45284;-71
2022/08/19 03:41:15;;;;;;;;;7.67;5.33;;;;;;;;5120857;27;45288;-70
2022/08/19 03:43:41;;;;;;;;;6.00;6.00;;;;;;;;5120671;27;45436;-70
2022/08/19 03:46:08;;;;;;;;;7.33;6.67;;;;;;;;5120493;27;46158;-70
2022/08/19 03:48:34;;;;;;;;;8.33;6.00;;;;;;;;5120108;27;45302;-69
2022/08/19 03:51:00;;;;;;;;;5.00;5.00;;;;;;;;5120617;27;45452;-69
2022/08/19 03:53:29;;;;;;;;;6.67;5.33;;;;;;;;5120780;27;45352;-70
2022/08/19 03:55:54;;;;;;;;;9.67;5.00;;;;;;;;5119885;27;48027;-70
2022/08/19 03:58:20;;;;;;;;;9.00;6.67;;;;;;;;5120450;27;45262;-70
2022/08/19 04:00:45;;;;;;;;;8.00;6.00;;;;;;;;5120494;27;45343;-70
2022/08/19 04:03:10;;;;;;;;;8.33;6.00;;;;;;;;5120496;27;45297;-70
2022/08/19 04:05:37;;;;;;;;;9.00;5.67;;;;;;;;5119569;27;46593;-70
2022/08/19 04:08:03;;;;;;;;;6.33;5.00;;;;;;;;5119804;27;45358;-69
2022/08/19 04:10:28;;;;;;;;;7.00;6.33;;;;;;;;5120480;27;45331;-69
2022/08/19 04:12:54;;;;;;;;;6.33;3.67;;;;;;;;5101979;27;45260;-69
2022/08/19 04:15:20;;;;;;;;;11.67;7.00;;;;;;;;5101340;27;47483;-69
2022/08/19 04:17:46;;;;;;;;;10.00;9.33;;;;;;;;5119794;27;45584;-69
2022/08/19 04:20:11;;;;;;;;;10.00;7.00;;;;;;;;5119815;27;45366;-69
2022/08/19 04:22:36;;;;;;;;;11.33;5.00;;;;;;;;5120442;27;45204;-70
2022/08/19 04:25:01;;;;;;;;;9.00;7.00;;;;;;;;5119534;27;46436;-68
2022/08/19 04:27:26;;;;;;;;;16.00;11.00;;;;;;;;5119677;27;45332;-69
2022/08/19 04:29:54;;;;;;;;;7.33;7.33;;;;;;;;5120122;27;45307;-69
2022/08/19 04:32:20;;;;;;;;;8.67;7.67;;;;;;;;5119931;27;45498;-69
2022/08/19 04:34:46;;;;;;;;;10.33;8.67;;;;;;;;5119256;27;47183;-69
2022/08/19 04:37:12;;;;;;;;;8.33;8.00;;;;;;;;5119796;27;45446;-69
2022/08/19 04:42:40;;;;;;;;;7.33;5.33;;;;;;;;5119941;27;45356;-69
2022/08/19 04:45:13;;;;;;;;;10.67;9.00;;;;;;;;5119509;27;46767;-69
2022/08/19 04:47:39;;;;;;;;;9.67;7.00;;;;;;;;5119292;27;45467;-70
2022/08/19 04:50:04;;;;;;;;;7.00;3.67;;;;;;;;5119549;27;45300;-70
2022/08/19 04:52:31;;;;;;;;;8.67;8.67;;;;;;;;5119878;27;45242;-70
2022/08/19 04:54:57;;;;;;;;;8.67;6.67;;;;;;;;5118174;27;46140;-69
2022/08/19 04:57:22;;;;;;;;;6.33;6.00;;;;;;;;5119395;27;45241;-69
2022/08/19 04:59:47;;;;;;;;;9.33;8.00;;;;;;;;5119634;27;45394;-71
2022/08/19 05:02:13;;;;;;;;;7.33;5.33;;;;;;;;5119774;27;45279;-69
2022/08/19 05:04:39;;;;;;;;;8.00;8.00;;;;;;;;5100138;27;45569;-69
2022/08/19 05:07:04;;;;;;;;;9.00;8.00;;;;;;;;5119136;27;45353;-69
2022/08/19 05:09:29;;;;;;;;;14.33;10.00;;;;;;;;5118983;27;45484;-69
2022/08/19 05:11:55;;;;;;;;;9.67;9.67;;;;;;;;5119650;27;45418;-69
2022/08/19 05:14:20;;;;;;;;;8.67;8.67;;;;;;;;5119019;27;46504;-69
2022/08/19 05:16:46;;;;;;;;;10.67;8.33;;;;;;;;5117879;27;45371;-69
2022/08/19 05:24:39;;;;;;;;;13.00;9.00;;;;;;;;5118621;27;45772;-69
2022/08/19 05:27:05;;;;;;;;;9.00;9.00;;;;;;;;5119169;27;46267;-69
2022/08/19 05:29:31;;;;;;;;;13.00;9.00;;;;;;;;5119075;27;45295;-69
2022/08/19 05:31:57;;;;;;;;;9.00;8.00;;;;;;;;5118883;27;45437;-69
2022/08/19 05:34:26;;;;;;;;;8.33;7.00;;;;;;;;5118170;27;46111;-69
2022/08/19 05:36:56;;;;;;;;;10.00;8.33;;;;;;;;5118508;27;45424;-69
2022/08/19 05:39:21;;;;;;;;;9.00;9.00;;;;;;;;5118751;27;45410;-69
2022/08/19 05:41:47;;;;;;;;;8.67;8.00;;;;;;;;5119005;27;45266;-69
2022/08/19 05:44:13;;;;;;;;;13.33;10.00;;;;;;;;5118621;27;46465;-68
2022/08/19 05:46:39;;;;;;;;;10.67;7.00;;;;;;;;5118832;27;45240;-69
2022/08/19 05:49:07;;;;;;;;;11.67;10.00;;;;;;;;5118721;27;45299;-69
2022/08/19 05:51:34;;;;;;;;;16.67;16.00;;;;;;;;5118551;27;45596;-69
2022/08/19 05:54:00;;;;;;;;;12.00;9.67;;;;;;;;5118591;27;45423;-69
2022/08/19 05:56:26;;;;;;;;;10.00;6.67;;;;;;;;5118574;27;45469;-68
2022/08/19 05:58:52;;;;;;;;;11.67;7.67;;;;;;;;5118724;27;45306;-68
2022/08/19 06:01:18;;;;;;;;;11.67;8.33;;;;;;;;5118741;27;45195;-69
2022/08/19 06:03:44;;;;;;;;;9.00;8.00;;;;;;;;5118298;27;46675;-69
2022/08/19 06:06:11;;;;;;;;;9.67;6.67;;;;;;;;5118344;27;45213;-68
2022/08/19 06:08:37;;;;;;;;;6.00;6.00;;;;;;;;5118560;27;45220;-69
2022/08/19 06:11:13;;;;;;;;;12.00;8.00;;;;;;;;5118308;27;45422;-68
2022/08/19 06:13:38;;;;;;;;;6.67;6.67;;;;;;;;5118201;27;46258;-69
2022/08/19 06:16:04;;;;;;;;;10.33;7.67;;;;;;;;5118323;27;45418;-69
2022/08/19 06:18:29;;;;;;;;;7.33;7.33;;;;;;;;5118402;27;45276;-71
2022/08/19 06:20:54;;;;;;;;;6.33;6.33;;;;;;;;5118314;27;45413;-69
2022/08/19 06:23:20;;;;;;;;;7.33;7.00;;;;;;;;5118075;27;45587;-69
2022/08/19 06:25:45;;;;;;;;;9.00;7.00;;;;;;;;5118237;27;45343;-69
2022/08/19 06:28:11;;;;;;;;;4.33;4.33;;;;;;;;5119864;27;45414;-69
2022/08/19 06:30:36;;;;;;;;;7.00;6.33;;;;;;;;5121983;27;45301;-68
2022/08/19 06:33:02;;;;;;;;;9.00;6.33;;;;;;;;5121471;27;47150;-69
2022/08/19 06:35:29;;;;;;;;;6.67;6.00;;;;;;;;5121460;27;45517;-70
2022/08/19 06:37:54;;;;;;;;;4.33;4.33;;;;;;;;5121734;27;45344;-69
2022/08/19 06:40:19;;;;;;;;;6.00;6.00;;;;;;;;5122002;27;45235;-69
2022/08/19 06:42:44;;;;;;;;;5.33;5.33;;;;;;;;5102822;27;46352;-69
2022/08/19 06:45:10;;;;;;;;;5.00;5.00;;;;;;;;5121187;27;45347;-70
2022/08/19 06:47:36;;;;;;;;;6.33;4.00;;;;;;;;5121655;27;45241;-69
2022/08/19 06:50:02;;;;;;;;;5.33;5.33;;;;;;;;5121800;27;45474;-70
2022/08/19 06:52:28;;;;;;;;;5.00;5.00;;;;;;;;5121393;27;46408;-70
2022/08/19 06:54:56;;;;;;;;;7.33;4.00;;;;;;;;5121107;27;45432;-70
2022/08/19 06:57:21;;;;;;;;;5.00;4.33;;;;;;;;5121511;27;45353;-70
2022/08/19 06:59:47;;;;;;;;;3.67;3.67;;;;;;;;5121626;27;45511;-70
2022/08/19 07:02:12;;;;;;;;;5.33;4.00;;;;;;;;5121321;27;46390;-70
2022/08/19 07:04:38;;;;;;;;;3.67;2.00;;;;;;;;5102730;27;45448;-69
2022/08/19 07:07:12;;;;;;;;;8.67;5.33;;;;;;;;5120970;27;45297;-69
2022/08/19 07:09:38;;;;;;;;;6.00;4.00;;;;;;;;5121571;27;45224;-69
2022/08/19 07:12:06;;;;;;;;;4.00;4.00;;;;;;;;5120946;27;46250;-70
2022/08/19 07:14:31;;;;;;;;;6.00;6.00;;;;;;;;5121004;27;45383;-69
2022/08/19 07:16:56;;;;;;;;;4.33;2.00;;;;;;;;5121138;27;45402;-70
2022/08/19 07:19:22;;;;;;;;;2.00;2.00;;;;;;;;5121063;27;45374;-70
2022/08/19 07:21:49;;;;;;;;;3.00;2.00;;;;;;;;5120937;27;46207;-71
2022/08/19 07:24:15;;;;;;;;;5.00;2.00;;;;;;;;5120863;27;45398;-70
2022/08/19 07:26:41;;;;;;;;;4.33;1.67;;;;;;;;5120948;27;45233;-70
2022/08/19 07:29:07;;;;;;;;;2.00;1.00;;;;;;;;5121049;27;45347;-70
2022/08/19 07:31:36;;;;;;;;;3.67;2.33;;;;;;;;5120517;27;46206;-70
2022/08/19 07:34:03;;;;;;;;;2.00;2.00;;;;;;;;5120660;27;45594;-70
2022/08/19 07:36:30;;;;;;;;;1.75;0.00;;;;;;;;5120594;27;45371;-70
2022/08/19 07:38:56;;;;;;;;;1.33;1.00;;;;;;;;5120149;27;45436;-69
2022/08/19 07:41:22;;;;;;;;;0.00;0.00;;;;;;;;5120197;27;45404;-69
2022/08/19 07:43:49;;;;;;;;;0.00;0.00;;;;;;;;5120546;27;45665;-70
2022/08/19 07:46:14;;;;;;;;;0.67;0.67;;;;;;;;5120737;27;45353;-69
2022/08/19 07:48:41;;;;;;;;;0.00;0.00;;;;;;;;5120880;27;45341;-70
2022/08/19 07:51:08;;;;;;;;;0.00;0.00;;;;;;;;5120107;27;47313;-70
2022/08/19 07:53:34;;;;;;;;;0.00;0.00;;;;;;;;5120116;27;45454;-70
2022/08/19 07:56:03;;;;;;;;;1.00;0.00;;;;;;;;5120441;27;45408;-70
2022/08/19 07:58:30;;;;;;;;;0.75;0.00;;;;;;;;5120675;27;45234;-70
2022/08/19 08:00:55;;;;;;;;;0.00;0.00;;;;;;;;5120207;27;45441;-69
2022/08/19 08:09:10;;;;;;;;;1.33;1.00;;;;;;;;5120390;27;45680;-70
2022/08/19 08:11:34;;;;;;;;;0.00;0.00;;;;;;;;5119965;27;45220;-69
2022/08/19 08:14:00;;;;;;;;;1.00;1.00;;;;;;;;5120268;27;45244;-70
2022/08/19 08:16:29;;;;;;;;;0.00;0.00;;;;;;;;5120255;27;45308;-70
2022/08/19 08:18:55;;;;;;;;;1.67;1.67;;;;;;;;5120117;27;45493;-70
2022/08/19 08:21:20;;;;;;;;;1.00;1.00;;;;;;;;5119610;27;46959;-71
2022/08/19 08:23:45;;;;;;;;;0.00;0.00;;;;;;;;5119928;27;45313;-70
2022/08/19 08:26:12;;;;;;;;;0.00;0.00;;;;;;;;5120094;27;45382;-70
2022/08/19 08:28:38;;;;;;;;;0.00;0.00;;;;;;;;5119879;27;45198;-70
2022/08/19 08:31:04;;;;;;;;;0.67;0.67;;;;;;;;5119545;27;45641;-70
2022/08/19 08:33:30;;;;;;;;;1.00;0.00;;;;;;;;5119833;27;45233;-70
2022/08/19 08:35:55;;;;;;;;;0.00;0.00;;;;;;;;5119572;27;45452;-70
2022/08/19 08:38:20;;;;;;;;;0.33;0.00;;;;;;;;5120084;27;45517;-70
2022/08/19 08:40:56;;;;;;;;;0.00;0.00;;;;;;;;5119469;27;45327;-70
2022/08/19 08:43:33;;;;;;;;;1.00;0.00;;;;;;;;5119782;27;45235;-70
2022/08/19 08:46:03;;;;;;;;;0.00;0.00;;;;;;;;5119982;27;45332;-70
2022/08/19 08:48:35;;;;;;;;;0.00;0.00;;;;;;;;5119740;27;45432;-70
2022/08/19 08:51:03;;;;;;;;;0.00;0.00;;;;;;;;5118993;27;45250;-71
2022/08/19 08:53:28;;;;;;;;;0.00;0.00;;;;;;;;5119144;27;45407;-70
2022/08/19 08:55:53;;;;;;;;;0.00;0.00;;;;;;;;5119468;27;45294;-70
2022/08/19 08:58:42;;;;;;;;;0.00;0.00;;;;;;;;5119679;27;45196;-70
2022/08/19 09:01:09;;;;;;;;;0.00;0.00;;;;;;;;5055539;28;45425;-70
2022/08/19 09:03:36;;;;;;;;;0.00;0.00;;;;;;;;5055852;28;45388;-70
2022/08/19 09:06:12;;;;;;;;;2.00;2.00;;;;;;;;5055639;28;45455;-70
2022/08/19 09:09:09;;;;;;;;;0.00;0.00;;;;;;;;5055610;28;45393;-70
2022/08/19 09:11:37;;;;;;;;;0.00;0.00;;;;;;;;4995437;28;46346;-70
2022/08/19 09:14:02;;;;;;;;;0.00;0.00;;;;;;;;4995713;28;45574;-70
2022/08/19 09:16:29;;;;;;;;;0.00;0.00;;;;;;;;4995957;28;45385;-70
2022/08/19 09:18:58;;;;;;;;;1.00;0.00;;;;;;;;4996070;28;45866;-70
2022/08/19 09:21:25;;;;;;;;;0.00;0.00;;;;;;;;4995526;28;46302;-71
2022/08/19 09:23:51;;;;;;;;;0.00;0.00;;;;;;;;4995426;28;45347;-70
2022/08/19 09:26:17;;;;;;;;;1.00;0.00;;;;;;;;4995850;28;45410;-70
2022/08/19 09:28:43;;;;;;;;;0.00;0.00;;;;;;;;4995727;28;45528;-70
2022/08/19 09:31:12;;;;;;;;;0.00;0.00;;;;;;;;4995474;28;45589;-70
2022/08/19 09:33:38;;;;;;;;;0.00;0.00;;;;;;;;4995362;28;45385;-70
2022/08/19 09:36:07;;;;;;;;;0.00;0.00;;;;;;;;4995615;28;45339;-70
2022/08/19 09:38:32;;;;;;;;;1.00;0.00;;;;;;;;5035414;28;45592;-70
2022/08/19 09:41:01;;;;;;;;;1.00;0.00;;;;;;;;5055278;28;46376;-70
2022/08/19 09:43:27;;;;;;;;;0.00;0.00;;;;;;;;5055179;28;45342;-71
2022/08/19 09:45:53;;;;;;;;;0.00;0.00;;;;;;;;5055127;28;45579;-69
2022/08/19 09:48:20;;;;;;;;;0.00;0.00;;;;;;;;5117198;27;45364;-70
2022/08/19 09:50:45;;;;;;;;;0.00;0.00;;;;;;;;5118557;27;47686;-70
2022/08/19 09:53:11;;;;;;;;;0.67;0.67;;;;;;;;5118776;27;45208;-70
2022/08/19 09:55:41;;;;;;;;;0.00;0.00;;;;;;;;5118258;27;45295;-70
2022/08/19 09:58:06;;;;;;;;;0.00;0.00;;;;;;;;5118912;27;45379;-70
2022/08/19 10:00:31;;;;;;;;;0.67;0.67;;;;;;;;5118544;27;46342;-70
2022/08/19 10:02:57;;;;;;;;;0.00;0.00;;;;;;;;5119624;27;45336;-70
2022/08/19 10:08:05;;;;;;;;;2.33;1.00;;;;;;;;5121956;27;45330;-70
2022/08/19 10:10:34;;;;;;;;;1.00;0.00;;;;;;;;5122020;27;46737;-70
2022/08/19 10:12:59;;;;;;;;;0.00;0.00;;;;;;;;5121981;27;45384;-71
2022/08/19 10:15:25;;;;;;;;;0.33;0.00;;;;;;;;5122243;27;45371;-70
2022/08/19 10:17:50;;;;;;;;;2.00;0.00;;;;;;;;5122265;27;45291;-70
2022/08/19 10:20:15;;;;;;;;;0.00;0.00;;;;;;;;5121433;27;46488;-70
2022/08/19 10:22:41;;;;;;;;;0.00;0.00;;;;;;;;5121895;27;45179;-70
2022/08/19 10:25:07;;;;;;;;;1.67;0.00;;;;;;;;5122149;27;45265;-69
2022/08/19 10:27:32;;;;;;;;;0.00;0.00;;;;;;;;5122152;27;45391;-70
2022/08/19 10:29:57;;;;;;;;;0.00;0.00;;;;;;;;5121771;27;46385;-70
2022/08/19 10:32:24;;;;;;;;;0.00;0.00;;;;;;;;5121948;27;45362;-70
2022/08/19 10:34:51;;;;;;;;;1.00;1.00;;;;;;;;5121836;27;45424;-70
2022/08/19 10:37:17;;;;;;;;;1.00;0.00;;;;;;;;5121716;27;45459;-71
2022/08/19 10:39:45;;;;;;;;;1.00;0.00;;;;;;;;5121600;27;46497;-70
2022/08/19 10:42:11;;;;;;;;;0.00;0.00;;;;;;;;5121410;27;45219;-71
2022/08/19 10:44:36;;;;;;;;;0.00;0.00;;;;;;;;5121573;27;45254;-71
2022/08/19 10:47:03;;;;;;;;;1.00;0.00;;;;;;;;5121734;27;45441;-71
2022/08/19 10:49:28;;;;;;;;;0.00;0.00;;;;;;;;5121398;27;46625;-70
2022/08/19 10:57:34;;;;;;;;;0.00;0.00;;;;;;;;5058189;28;45413;-70
2022/08/19 11:00:00;;;;;;;;;0.00;0.00;;;;;;;;5057836;28;45532;-70
2022/08/19 11:02:25;;;;;;;;;0.00;0.00;;;;;;;;5057576;28;45384;-70
2022/08/19 11:04:51;;;;;;;;;1.00;0.00;;;;;;;;5040540;28;45337;-70
2022/08/19 11:07:16;;;;;;;;;1.67;1.67;;;;;;;;5057457;28;45470;-71
2022/08/19 11:09:42;;;;;;;;;0.00;0.00;;;;;;;;5057736;28;46447;-70
2022/08/19 11:12:09;;;;;;;;;1.00;0.00;;;;;;;;5056696;28;45357;-70
2022/08/19 11:14:35;;;;;;;;;1.00;1.00;;;;;;;;5057025;28;45722;-71
2022/08/19 11:17:00;;;;;;;;;0.00;0.00;;;;;;;;5057156;28;45368;-71
2022/08/19 11:19:26;;;;;;;;;0.00;0.00;;;;;;;;5057030;28;45792;-71
2022/08/19 11:21:52;;;;;;;;;2.00;0.00;;;;;;;;5052131;28;45527;-74
2022/08/19 11:24:22;;;;;;;;;0.00;0.00;;;;;;;;5056736;28;45353;-70
2022/08/19 11:26:49;;;;;;;;;0.00;0.00;;;;;;;;5057083;28;45702;-70
2022/08/19 11:29:15;;;;;;;;;3.67;2.00;;;;;;;;5054721;28;47575;-73
2022/08/19 11:31:42;;;;;;;;;0.00;0.00;;;;;;;;5111832;27;45239;-70
2022/08/19 11:34:08;;;;;;;;;0.00;0.00;;;;;;;;5121077;27;45370;-72
2022/08/19 11:36:34;;;;;;;;;0.00;0.00;;;;;;;;5100888;27;45525;-67
2022/08/19 11:38:59;;;;;;;;;0.33;0.33;;;;;;;;5099418;27;45554;-71
2022/08/19 11:41:25;;;;;;;;;0.33;0.33;;;;;;;;5100110;27;45257;-72
2022/08/19 11:43:52;;;;;;;;;0.00;0.00;;;;;;;;5099698;27;45458;-72
2022/08/19 11:46:17;;;;;;;;;0.33;0.33;;;;;;;;5100422;27;45401;-71
2022/08/19 11:48:43;;;;;;;;;0.00;0.00;;;;;;;;5113037;27;46013;-71
2022/08/19 11:51:10;;;;;;;;;2.00;0.67;;;;;;;;5119576;27;45600;-71
2022/08/19 11:53:36;;;;;;;;;0.00;0.00;;;;;;;;5117595;27;45706;-71
2022/08/19 11:56:02;;;;;;;;;0.00;0.00;;;;;;;;5119046;27;45464;-73
2022/08/19 11:58:28;;;;;;;;;2.00;1.00;;;;;;;;5120342;27;47887;-71
2022/08/19 12:00:54;;;;;;;;;1.00;1.00;;;;;;;;5119842;27;45397;-71
2022/08/19 12:03:19;;;;;;;;;0.00;0.00;;;;;;;;5093339;27;45663;-71
2022/08/19 12:05:45;;;;;;;;;1.33;1.33;;;;;;;;5110960;27;45350;-71
2022/08/19 12:08:12;;;;;;;;;0.00;0.00;;;;;;;;5118066;27;45354;-71
2022/08/19 12:10:38;;;;;;;;;0.33;0.00;;;;;;;;5119808;27;45334;-71
2022/08/19 12:13:03;;;;;;;;;3.00;1.00;;;;;;;;5115528;27;45504;-70
2022/08/19 12:15:40;;;;;;;;;0.00;0.00;;;;;;;;5113609;27;45554;-69
2022/08/19 12:18:06;;;;;;;;;0.00;0.00;;;;;;;;5104718;27;45374;-70
2022/08/19 12:20:33;;;;;;;;;2.00;0.00;;;;;;;;5104685;27;45610;-70
2022/08/19 12:22:59;;;;;;;;;1.67;1.00;;;;;;;;5098458;27;45358;-70
2022/08/19 12:25:24;;;;;;;;;0.00;0.00;;;;;;;;5098096;27;45390;-68
2022/08/19 12:27:50;;;;;;;;;0.00;0.00;;;;;;;;5098546;27;45440;-69
2022/08/19 12:30:15;;;;;;;;;0.00;0.00;;;;;;;;5103653;27;45742;-69
2022/08/19 12:32:40;;;;;;;;;2.00;0.00;;;;;;;;5117131;27;45508;-69
2022/08/19 12:35:06;;;;;;;;;0.00;0.00;;;;;;;;5091344;27;45561;-70
2022/08/19 12:37:32;;;;;;;;;0.00;0.00;;;;;;;;5105407;27;45428;-70
2022/08/19 12:39:57;;;;;;;;;0.67;0.33;;;;;;;;5118663;27;45330;-72
2022/08/19 12:42:22;;;;;;;;;22.33;20.67;;;;;;;;5118711;27;45418;-68
2022/08/19 12:44:48;;;;;;;;;1.00;1.00;;;;;;;;5119220;27;45373;-69
2022/08/19 12:47:13;;;;;;;;;1.00;1.00;;;;;;;;5118703;27;46742;-71
2022/08/19 12:49:39;;;;;;;;;1.00;1.00;;;;;;;;5118723;27;45387;-70
2022/08/19 12:52:05;;;;;;;;;0.00;0.00;;;;;;;;5118706;27;45358;-70
2022/08/19 12:54:30;;;;;;;;;0.00;0.00;;;;;;;;5118595;27;45522;-69
2022/08/19 12:56:56;;;;;;;;;0.00;0.00;;;;;;;;5118772;27;45515;-66
2022/08/19 12:59:22;;;;;;;;;0.00;0.00;;;;;;;;5114987;27;45387;-69
2022/08/19 13:01:47;;;;;;;;;2.00;1.00;;;;;;;;5109677;27;45323;-68
2022/08/19 13:04:12;;;;;;;;;1.00;1.00;;;;;;;;5118845;27;45303;-69
2022/08/19 13:06:37;;;;;;;;;2.00;0.00;;;;;;;;5118360;27;45910;-67
2022/08/19 13:09:03;;;;;;;;;0.00;0.00;;;;;;;;5118357;27;45901;-72
2022/08/19 13:11:32;;;;;;;;;1.00;1.00;;;;;;;;5118596;27;45453;-72
2022/08/19 13:13:57;;;;;;;;;0.33;0.33;;;;;;;;5118717;27;45410;-77
2022/08/19 13:16:23;;;;;;;;;0.00;0.00;;;;;;;;5117684;27;45501;-72
2022/08/19 13:18:49;;;;;;;;;0.00;0.00;;;;;;;;5118304;27;45404;-75
2022/08/19 13:21:14;;;;;;;;;0.00;0.00;;;;;;;;5118578;27;45385;-71
2022/08/19 13:23:40;;;;;;;;;0.00;0.00;;;;;;;;5118182;27;45576;-71
2022/08/19 13:26:06;;;;;;;;;0.00;0.00;;;;;;;;5118264;27;46361;-72
2022/08/19 13:34:01;;;;;;;;;0.00;0.00;;;;;;;;5118249;27;45327;-73
2022/08/19 13:36:26;;;;;;;;;2.00;2.00;;;;;;;;5117714;27;45441;-74
2022/08/19 13:38:51;;;;;;;;;0.00;0.00;;;;;;;;5117038;27;45380;-74
2022/08/19 13:41:19;;;;;;;;;0.00;0.00;;;;;;;;5118068;27;45355;-72
2022/08/19 13:43:44;;;;;;;;;0.00;0.00;;;;;;;;5118420;27;45485;-73
2022/08/19 13:46:13;;;;;;;;;0.00;0.00;;;;;;;;5117776;27;47194;-73
2022/08/19 13:48:38;;;;;;;;;0.00;0.00;;;;;;;;5099431;27;45371;-72
2022/08/19 13:51:05;;;;;;;;;0.00;0.00;;;;;;;;5118155;27;45706;-71
2022/08/19 13:53:30;;;;;;;;;1.00;0.00;;;;;;;;5118216;27;45479;-69
2022/08/19 13:55:56;;;;;;;;;1.00;0.00;;;;;;;;5117487;27;46333;-72
2022/08/19 13:58:22;;;;;;;;;0.00;0.00;;;;;;;;5117360;27;45192;-70
2022/08/19 14:00:48;;;;;;;;;1.33;0.00;;;;;;;;5117600;27;45426;-71
2022/08/19 14:03:13;;;;;;;;;17.00;11.00;;;;;;;;5117911;27;45566;-71
2022/08/19 14:05:39;;;;;;;;;8.67;8.67;;;;;;;;5117373;27;45937;-72
2022/08/19 14:08:04;;;;;;;;;4.67;4.67;;;;;;;;5117481;27;45409;-72
2022/08/19 14:10:31;;;;;;;;;4.00;4.00;;;;;;;;5117554;27;45430;-70
2022/08/19 14:12:58;;;;;;;;;2.67;1.00;;;;;;;;5117962;27;45492;-71
2022/08/19 14:15:23;;;;;;;;;0.00;0.00;;;;;;;;5117412;27;47055;-70
2022/08/19 14:17:49;;;;;;;;;1.67;1.00;;;;;;;;5117525;27;45410;-71
2022/08/19 14:20:15;;;;;;;;;1.00;1.00;;;;;;;;5117724;27;45704;-72
2022/08/19 14:22:40;;;;;;;;;3.00;3.00;;;;;;;;5117683;27;45578;-71
2022/08/19 14:25:07;;;;;;;;;7.67;6.00;;;;;;;;5117197;27;46135;-71
2022/08/19 14:27:36;;;;;;;;;3.00;3.00;;;;;;;;5117391;27;45788;-70
2022/08/19 14:30:02;;;;;;;;;8.00;5.00;;;;;;;;5117391;27;45362;-72
2022/08/19 14:32:27;;;;;;;;;5.33;3.33;;;;;;;;5117600;27;45410;-71
2022/08/19 14:34:53;;;;;;;;;1.67;1.67;;;;;;;;5117289;27;46230;-72
2022/08/19 14:37:18;;;;;;;;;3.33;3.33;;;;;;;;5117345;27;45194;-71
2022/08/19 14:39:44;;;;;;;;;0.33;0.33;;;;;;;;5117315;27;45502;-70
2022/08/19 14:42:10;;;;;;;;;5.67;5.00;;;;;;;;5117446;27;45373;-71
2022/08/19 14:44:36;;;;;;;;;3.00;2.33;;;;;;;;5116930;27;45482;-72
2022/08/19 14:47:01;;;;;;;;;2.67;1.67;;;;;;;;5117136;27;45264;-83
2022/08/19 14:49:26;;;;;;;;;13.67;9.67;;;;;;;;5119102;27;45543;-67
2022/08/19 14:51:52;;;;;;;;;3.00;3.00;;;;;;;;5121100;27;45367;-67
2022/08/19 14:54:17;;;;;;;;;2.67;2.67;;;;;;;;5120067;27;45579;-68
2022/08/19 14:56:43;;;;;;;;;2.67;1.00;;;;;;;;5120590;27;45433;-70
2022/08/19 14:59:08;;;;;;;;;2.33;2.33;;;;;;;;5120758;27;45365;-72
2022/08/19 15:01:34;;;;;;;;;6.00;6.00;;;;;;;;5120869;27;45751;-71
2022/08/19 15:04:00;;;;;;;;;4.33;2.33;;;;;;;;5120437;27;45497;-71